createdAt,value
2022-09-17T00:01:13.031Z,60.31
2022-09-17T00:03:40.747Z,60.63
2022-09-17T00:06:10.295Z,60.57
2022-09-17T00:08:40.119Z,60.48
2022-09-17T00:11:10.737Z,60.41
2022-09-17T00:13:38.897Z,60.68
2022-09-17T00:16:07.165Z,60.41
2022-09-17T00:18:36.815Z,60.63
2022-09-17T00:21:05.061Z,60.78
2022-09-17T00:23:32.696Z,60.99
2022-09-17T00:26:00.343Z,60.71
2022-09-17T00:28:29.374Z,60.82
2022-09-17T00:30:57.089Z,60.90
2022-09-17T00:33:24.742Z,60.75
2022-09-17T00:35:59.977Z,60.86
2022-09-17T00:38:27.816Z,60.78
2022-09-17T00:40:55.492Z,60.53
2022-09-17T00:43:42.594Z,60.59
2022-09-17T00:46:25.205Z,60.60
2022-09-17T00:48:54.741Z,60.47
2022-09-17T00:51:28.665Z,60.78
2022-09-17T00:53:56.979Z,60.87
2022-09-17T00:56:27.614Z,60.89
2022-09-17T00:58:57.126Z,60.88
2022-09-17T01:01:25.110Z,61.09
2022-09-17T01:03:52.822Z,60.70
2022-09-17T01:06:29.508Z,60.87
2022-09-17T01:09:04.456Z,60.92
2022-09-17T01:11:51.267Z,60.68
2022-09-17T01:14:40.057Z,60.63
2022-09-17T01:17:19.597Z,60.98
2022-09-17T01:20:31.637Z,61.05
2022-09-17T01:23:27.534Z,60.95
2022-09-17T01:26:12.806Z,61.00
2022-09-17T01:28:47.522Z,60.85
2022-09-17T01:31:35.965Z,60.86
2022-09-17T01:34:14.379Z,60.70
2022-09-17T01:36:53.831Z,60.70
2022-09-17T01:39:32.961Z,61.08
2022-09-17T01:42:12.808Z,61.16
2022-09-17T01:44:47.798Z,61.21
2022-09-17T01:47:21.965Z,61.50
2022-09-17T01:49:52.530Z,61.20
2022-09-17T01:52:21.681Z,61.36
2022-09-17T01:54:54.273Z,61.20
2022-09-17T01:57:27.934Z,61.65
2022-09-17T02:00:01.063Z,61.63
2022-09-17T02:02:34.054Z,61.21
2022-09-17T02:05:06.175Z,61.24
2022-09-17T02:07:42.312Z,61.19
2022-09-17T02:10:13.686Z,61.56
2022-09-17T02:12:46.510Z,61.60
2022-09-17T02:15:21.081Z,61.49
2022-09-17T02:17:54.757Z,61.34
2022-09-17T02:20:30.918Z,61.56
2022-09-17T02:23:03.731Z,61.68
2022-09-17T02:25:37.818Z,61.60
2022-09-17T02:28:14.275Z,61.63
2022-09-17T02:30:42.310Z,61.49
2022-09-17T02:33:15.026Z,61.70
2022-09-17T02:35:43.769Z,61.30
2022-09-17T02:38:11.814Z,61.21
2022-09-17T02:40:48.530Z,61.61
2022-09-17T02:43:24.732Z,61.63
2022-09-17T02:46:08.365Z,61.48
2022-09-17T02:49:05.979Z,61.35
2022-09-17T02:51:42.353Z,61.62
2022-09-17T02:54:23.808Z,61.32
2022-09-17T02:57:02.499Z,61.56
2022-09-17T02:59:35.412Z,61.66
2022-09-17T03:02:10.092Z,61.35
2022-09-17T03:04:42.432Z,61.48
2022-09-17T03:07:12.191Z,61.58
2022-09-17T03:09:40.786Z,61.63
2022-09-17T03:12:08.727Z,61.69
2022-09-17T03:14:36.441Z,61.74
2022-09-17T03:17:04.790Z,61.65
2022-09-17T03:19:32.707Z,61.54
2022-09-17T03:22:01.708Z,61.65
2022-09-17T03:24:29.330Z,61.40
2022-09-17T03:26:56.998Z,61.28
2022-09-17T03:29:24.734Z,61.58
2022-09-17T03:31:52.362Z,61.51
2022-09-17T03:34:20.966Z,61.23
2022-09-17T03:36:48.582Z,61.43
2022-09-17T03:39:17.563Z,61.11
2022-09-17T03:41:45.189Z,61.49
2022-09-17T03:44:12.900Z,61.31
2022-09-17T03:46:40.619Z,61.21
2022-09-17T03:49:09.050Z,61.26
2022-09-17T03:51:36.701Z,61.50
2022-09-17T03:54:04.598Z,61.36
2022-09-17T03:56:34.258Z,61.21
2022-09-17T03:59:02.496Z,61.17
2022-09-17T04:01:30.868Z,61.45
2022-09-17T04:03:58.580Z,61.24
2022-09-17T04:06:26.311Z,60.94
2022-09-17T04:08:54.061Z,60.80
2022-09-17T04:11:21.787Z,60.76
2022-09-17T04:13:50.870Z,61.05
2022-09-17T04:16:18.689Z,61.17
2022-09-17T04:18:46.327Z,60.98
2022-09-17T04:21:14.163Z,60.94
2022-09-17T04:23:41.789Z,60.94
2022-09-17T04:26:09.460Z,60.81
2022-09-17T04:28:37.103Z,61.04
2022-09-17T04:31:06.167Z,60.62
2022-09-17T04:33:33.892Z,61.01
2022-09-17T04:36:01.538Z,60.88
2022-09-17T04:38:29.219Z,60.89
2022-09-17T04:40:57.313Z,60.78
2022-09-17T04:43:24.976Z,60.93
2022-09-17T04:45:52.646Z,60.90
2022-09-17T04:48:21.619Z,60.71
2022-09-17T04:50:49.391Z,60.77
2022-09-17T04:53:17.234Z,60.69
2022-09-17T04:55:44.914Z,60.46
2022-09-17T04:58:12.704Z,60.69
2022-09-17T05:00:42.430Z,61.32
2022-09-17T05:03:10.221Z,60.75
2022-09-17T05:05:39.223Z,61.30
2022-09-17T05:08:08.365Z,61.24
2022-09-17T05:10:36.058Z,60.92
2022-09-17T05:13:04.810Z,61.33
2022-09-17T05:15:32.459Z,61.05
2022-09-17T05:18:00.108Z,61.21
2022-09-17T05:20:27.814Z,61.67
2022-09-17T05:22:56.989Z,61.59
2022-09-17T05:25:24.878Z,61.03
2022-09-17T05:27:53.370Z,61.54
2022-09-17T05:30:21.350Z,61.43
2022-09-17T05:32:49.685Z,61.21
2022-09-17T05:35:17.632Z,61.27
2022-09-17T05:37:45.282Z,61.49
2022-09-17T05:40:14.363Z,61.47
2022-09-17T05:42:42.023Z,61.25
2022-09-17T05:45:10.207Z,61.26
2022-09-17T05:47:37.836Z,61.40
2022-09-17T05:50:06.256Z,61.44
2022-09-17T05:52:33.960Z,61.38
2022-09-17T05:55:01.596Z,61.39
2022-09-17T05:57:31.350Z,61.39
2022-09-17T05:59:59.023Z,61.47
2022-09-17T06:02:26.625Z,61.35
2022-09-17T06:04:54.333Z,61.47
2022-09-17T06:07:21.974Z,61.68
2022-09-17T06:09:49.613Z,61.64
2022-09-17T06:12:17.250Z,61.74
2022-09-17T06:14:46.330Z,62.08
2022-09-17T06:17:13.995Z,63.10
2022-09-17T06:19:41.676Z,63.15
2022-09-17T06:22:09.390Z,63.08
2022-09-17T06:24:37.015Z,62.56
2022-09-17T06:27:05.059Z,62.70
2022-09-17T06:29:32.719Z,62.08
2022-09-17T06:32:02.714Z,62.01
2022-09-17T06:34:30.346Z,62.21
2022-09-17T06:36:57.950Z,61.87
2022-09-17T06:39:25.620Z,61.76
2022-09-17T06:41:53.251Z,62.64
2022-09-17T06:44:20.877Z,63.24
2022-09-17T06:46:50.990Z,63.39
2022-09-17T06:49:20.190Z,62.91
2022-09-17T06:51:47.826Z,62.82
2022-09-17T06:54:15.483Z,62.41
2022-09-17T06:56:43.192Z,62.29
2022-09-17T06:59:10.821Z,62.50
2022-09-17T07:01:38.522Z,62.18
2022-09-17T07:04:06.592Z,62.50
2022-09-17T07:06:35.706Z,62.24
2022-09-17T07:09:05.195Z,62.16
2022-09-17T07:11:35.514Z,62.25
2022-09-17T07:14:04.479Z,62.21
2022-09-17T07:16:32.626Z,62.23
2022-09-17T07:19:01.047Z,61.69
2022-09-17T07:21:28.652Z,61.74
2022-09-17T07:23:57.644Z,61.81
2022-09-17T07:26:25.479Z,62.33
2022-09-17T07:28:53.134Z,62.43
2022-09-17T07:31:20.823Z,61.83
2022-09-17T07:33:48.493Z,62.34
2022-09-17T07:36:17.827Z,62.49
2022-09-17T07:38:45.962Z,62.20
2022-09-17T07:41:16.447Z,62.20
2022-09-17T07:43:44.749Z,62.59
2022-09-17T07:46:18.773Z,62.18
2022-09-17T07:48:46.751Z,62.53
2022-09-17T07:51:18.837Z,62.48
2022-09-17T07:53:47.722Z,62.71
2022-09-17T07:56:16.800Z,62.95
2022-09-17T07:58:44.483Z,62.95
2022-09-17T08:01:15.361Z,62.58
2022-09-17T08:03:44.193Z,62.60
2022-09-17T08:06:13.656Z,62.73
2022-09-17T08:08:42.272Z,62.60
2022-09-17T08:11:11.969Z,62.94
2022-09-17T08:13:41.643Z,62.99
2022-09-17T08:16:13.242Z,63.16
2022-09-17T08:18:41.546Z,62.50
2022-09-17T08:21:12.056Z,62.75
2022-09-17T08:23:41.271Z,62.52
2022-09-17T08:26:13.111Z,62.86
2022-09-17T08:28:47.773Z,63.17
2022-09-17T08:31:17.005Z,63.50
2022-09-17T08:33:44.731Z,63.23
2022-09-17T08:36:13.954Z,62.76
2022-09-17T08:38:41.837Z,62.61
2022-09-17T08:41:21.890Z,62.54
2022-09-17T08:43:59.978Z,62.94
2022-09-17T08:46:28.543Z,62.73
2022-09-17T08:49:06.690Z,62.60
2022-09-17T08:51:43.474Z,62.64
2022-09-17T08:54:15.591Z,62.83
2022-09-17T08:56:44.671Z,62.94
2022-09-17T08:59:21.693Z,62.63
2022-09-17T09:01:55.163Z,62.83
2022-09-17T09:04:40.542Z,62.63
2022-09-17T09:07:09.436Z,62.25
2022-09-17T09:09:39.110Z,62.09
2022-09-17T09:12:08.824Z,61.76
2022-09-17T09:14:40.480Z,61.83
2022-09-17T09:17:09.867Z,61.67
2022-09-17T09:19:43.086Z,61.42
2022-09-17T09:22:16.294Z,61.46
2022-09-17T09:24:46.777Z,61.39
2022-09-17T09:27:17.914Z,61.76
2022-09-17T09:29:56.740Z,61.44
2022-09-17T09:32:33.287Z,61.36
2022-09-17T09:35:03.446Z,61.44
2022-09-17T09:37:32.609Z,61.74
2022-09-17T09:40:04.197Z,61.35
2022-09-17T09:42:33.195Z,61.54
2022-09-17T09:45:05.567Z,61.34
2022-09-17T09:47:42.789Z,61.41
2022-09-17T09:50:19.633Z,61.38
2022-09-17T09:52:52.675Z,60.94
2022-09-17T09:55:33.899Z,61.48
2022-09-17T09:58:06.740Z,60.61
2022-09-17T10:00:38.025Z,60.98
2022-09-17T10:03:10.969Z,61.01
2022-09-17T10:05:38.447Z,60.92
2022-09-17T10:08:12.019Z,60.83
2022-09-17T10:10:54.545Z,60.86
2022-09-17T10:13:22.103Z,61.66
2022-09-17T10:15:50.968Z,62.24
2022-09-17T10:18:19.794Z,62.96
2022-09-17T10:20:51.180Z,63.50
2022-09-17T10:23:18.837Z,63.47
2022-09-17T10:25:46.366Z,63.56
2022-09-17T10:28:26.275Z,63.34
2022-09-17T10:30:59.298Z,63.41
2022-09-17T10:33:28.143Z,63.46
2022-09-17T10:35:59.954Z,63.27
2022-09-17T10:38:28.736Z,63.72
2022-09-17T10:41:08.861Z,63.62
2022-09-17T10:43:36.286Z,63.79
2022-09-17T10:46:05.292Z,64.29
2022-09-17T10:48:34.465Z,64.41
2022-09-17T10:51:03.508Z,64.03
2022-09-17T10:53:30.998Z,63.64
2022-09-17T10:56:11.105Z,63.72
2022-09-17T10:58:48.245Z,63.68
2022-09-17T11:01:25.529Z,63.54
2022-09-17T11:04:00.472Z,63.25
2022-09-17T11:06:48.740Z,63.20
2022-09-17T11:09:21.244Z,63.04
2022-09-17T11:11:55.972Z,62.81
2022-09-17T11:14:35.964Z,62.87
2022-09-17T11:17:07.595Z,62.54
2022-09-17T11:19:39.422Z,62.55
2022-09-17T11:22:13.429Z,62.76
2022-09-17T11:24:54.609Z,62.61
2022-09-17T11:27:35.315Z,62.66
2022-09-17T11:30:10.676Z,62.70
2022-09-17T11:32:53.342Z,62.87
2022-09-17T11:35:22.900Z,62.88
2022-09-17T11:37:57.708Z,62.67
2022-09-17T11:40:38.779Z,62.73
2022-09-17T11:43:13.132Z,62.85
2022-09-17T11:45:42.498Z,62.73
2022-09-17T11:48:13.475Z,62.58
2022-09-17T11:50:42.882Z,62.85
2022-09-17T11:53:16.042Z,62.94
2022-09-17T11:55:47.483Z,62.82
2022-09-17T11:58:16.860Z,62.74
2022-09-17T12:00:46.779Z,62.86
2022-09-17T12:03:20.143Z,63.13
2022-09-17T12:05:49.192Z,63.02
2022-09-17T12:08:19.274Z,63.27
2022-09-17T12:10:50.390Z,62.87
2022-09-17T12:13:23.010Z,62.69
2022-09-17T12:15:53.827Z,62.70
2022-09-17T12:18:32.720Z,62.62
2022-09-17T12:21:02.561Z,62.61
2022-09-17T12:23:35.934Z,62.53
2022-09-17T12:26:09.137Z,62.56
2022-09-17T12:28:40.549Z,62.20
2022-09-17T12:31:11.969Z,62.26
2022-09-17T12:33:43.534Z,62.23
2022-09-17T12:36:28.942Z,62.04
2022-09-17T12:39:06.606Z,61.90
2022-09-17T12:41:38.643Z,61.79
2022-09-17T12:44:14.288Z,61.44
2022-09-17T12:46:51.027Z,61.54
2022-09-17T12:49:29.489Z,60.93
2022-09-17T12:51:59.042Z,60.93
2022-09-17T12:54:44.473Z,60.94
2022-09-17T12:57:17.755Z,60.62
2022-09-17T12:59:50.755Z,60.71
2022-09-17T13:02:20.192Z,60.92
2022-09-17T13:05:02.278Z,61.06
2022-09-17T13:07:45.993Z,60.99
2022-09-17T13:10:23.138Z,61.13
2022-09-17T13:12:56.441Z,61.13
2022-09-17T13:15:38.058Z,61.27
2022-09-17T13:18:27.435Z,60.92
2022-09-17T13:21:05.492Z,60.90
2022-09-17T13:23:34.278Z,61.08
2022-09-17T13:26:05.209Z,61.00
2022-09-17T13:28:47.276Z,59.84
2022-09-17T13:31:21.228Z,55.15
2022-09-17T13:34:06.429Z,50.31
2022-09-17T13:36:51.777Z,48.96
2022-09-17T13:39:34.105Z,47.51
2022-09-17T13:42:08.157Z,49.18
2022-09-17T13:44:36.357Z,50.33
2022-09-17T13:47:12.283Z,50.94
2022-09-17T13:49:44.863Z,51.76
2022-09-17T13:52:12.572Z,51.92
2022-09-17T13:54:40.302Z,52.38
2022-09-17T13:57:14.950Z,52.63
2022-09-17T13:59:54.119Z,52.96
2022-09-17T14:02:33.175Z,53.43
2022-09-17T14:05:19.566Z,53.29
2022-09-17T14:07:49.056Z,52.95
2022-09-17T14:10:35.326Z,52.70
2022-09-17T14:13:17.677Z,52.28
2022-09-17T14:16:01.718Z,52.19
2022-09-17T14:18:36.490Z,50.72
2022-09-17T14:21:07.951Z,48.48
2022-09-17T14:23:36.442Z,47.96
2022-09-17T14:26:09.234Z,47.99
2022-09-17T14:28:42.469Z,46.46
2022-09-17T14:31:17.973Z,45.83
2022-09-17T14:33:46.163Z,46.24
2022-09-17T14:36:19.122Z,46.43
2022-09-17T14:38:47.953Z,46.70
2022-09-17T14:41:21.870Z,46.70
2022-09-17T14:43:51.213Z,45.75
2022-09-17T14:46:22.504Z,46.76
2022-09-17T14:48:50.485Z,46.97
2022-09-17T14:51:23.289Z,48.63
2022-09-17T14:54:07.326Z,50.15
2022-09-17T14:56:36.149Z,51.24
2022-09-17T14:59:03.776Z,51.90
2022-09-17T15:01:32.684Z,52.17
2022-09-17T15:04:21.515Z,52.63
2022-09-17T15:06:49.242Z,52.73
2022-09-17T15:09:17.689Z,53.16
2022-09-17T15:11:47.978Z,53.39
2022-09-17T15:14:18.612Z,54.03
2022-09-17T15:16:51.495Z,54.14
2022-09-17T15:19:23.080Z,54.29
2022-09-17T15:21:55.038Z,54.24
2022-09-17T15:24:27.676Z,53.95
2022-09-17T15:26:57.562Z,53.79
2022-09-17T15:29:26.495Z,53.70
2022-09-17T15:31:55.571Z,53.87
2022-09-17T15:34:23.511Z,53.80
2022-09-17T15:37:07.328Z,53.91
2022-09-17T15:39:40.318Z,53.90
2022-09-17T15:42:18.077Z,53.77
2022-09-17T15:44:45.573Z,53.84
2022-09-17T15:47:31.475Z,53.98
2022-09-17T15:50:12.882Z,53.56
2022-09-17T15:52:40.392Z,53.42
2022-09-17T15:55:29.322Z,53.41
2022-09-17T15:57:57.245Z,53.57
2022-09-17T16:00:24.878Z,53.15
2022-09-17T16:02:52.798Z,53.00
2022-09-17T16:05:38.358Z,52.88
2022-09-17T16:08:21.055Z,52.70
2022-09-17T16:10:48.540Z,52.81
2022-09-17T16:13:15.994Z,52.82
2022-09-17T16:15:43.783Z,52.94
2022-09-17T16:18:14.836Z,53.11
2022-09-17T16:20:42.353Z,53.05
2022-09-17T16:23:10.173Z,51.04
2022-09-17T16:25:40.257Z,50.76
2022-09-17T16:28:10.707Z,49.03
2022-09-17T16:30:38.549Z,48.24
2022-09-17T16:33:06.853Z,49.02
2022-09-17T16:35:34.459Z,48.83
2022-09-17T16:38:02.224Z,48.67
2022-09-17T16:40:29.747Z,48.71
2022-09-17T16:43:00.611Z,48.36
2022-09-17T16:45:29.115Z,48.19
2022-09-17T16:47:56.834Z,47.96
2022-09-17T16:50:24.355Z,47.94
2022-09-17T16:52:52.158Z,47.33
2022-09-17T16:55:19.990Z,47.22
2022-09-17T16:57:47.762Z,47.33
2022-09-17T17:00:18.950Z,47.11
2022-09-17T17:02:52.272Z,46.57
2022-09-17T17:05:19.887Z,46.69
2022-09-17T17:07:47.357Z,46.40
2022-09-17T17:10:14.835Z,46.93
2022-09-17T17:12:42.454Z,46.97
2022-09-17T17:15:10.325Z,47.45
2022-09-17T17:17:39.208Z,47.35
2022-09-17T17:20:08.802Z,47.69
2022-09-17T17:22:36.959Z,48.17
2022-09-17T17:25:05.529Z,48.31
2022-09-17T17:27:33.122Z,48.48
2022-09-17T17:30:01.589Z,48.67
2022-09-17T17:32:29.109Z,49.10
2022-09-17T17:34:58.215Z,49.27
2022-09-17T17:37:26.715Z,49.96
2022-09-17T17:39:54.729Z,50.55
2022-09-17T17:42:22.530Z,51.16
2022-09-17T17:44:49.970Z,51.35
2022-09-17T17:47:17.437Z,51.38
2022-09-17T17:49:45.082Z,51.81
2022-09-17T17:52:13.875Z,51.87
2022-09-17T17:54:41.335Z,52.22
2022-09-17T17:57:08.846Z,52.29
2022-09-17T17:59:36.278Z,52.45
2022-09-17T18:02:03.848Z,52.66
2022-09-17T18:04:31.417Z,52.59
2022-09-17T18:06:59.103Z,52.75
2022-09-17T18:09:27.961Z,52.94
2022-09-17T18:11:55.450Z,52.82
2022-09-17T18:14:22.902Z,52.86
2022-09-17T18:16:50.538Z,52.99
2022-09-17T18:19:18.007Z,53.11
2022-09-17T18:21:45.745Z,53.03
2022-09-17T18:24:13.215Z,53.35
2022-09-17T18:26:42.069Z,53.28
2022-09-17T18:29:09.589Z,53.61
2022-09-17T18:31:37.879Z,53.74
2022-09-17T18:34:06.488Z,53.79
2022-09-17T18:36:34.758Z,54.26
2022-09-17T18:39:32.869Z,54.08
2022-09-17T18:41:53.562Z,54.69
2022-09-17T18:44:21.848Z,54.84
2022-09-17T18:46:51.240Z,55.00
2022-09-17T18:49:18.890Z,55.24
2022-09-17T18:51:46.503Z,55.21
2022-09-17T18:54:14.364Z,55.32
2022-09-17T18:56:42.113Z,55.53
2022-09-17T18:59:11.643Z,55.67
2022-09-17T19:01:39.457Z,55.77
2022-09-17T19:04:07.635Z,55.85
2022-09-17T19:06:35.650Z,55.98
2022-09-17T19:09:03.933Z,56.06
2022-09-17T19:11:31.422Z,56.10
2022-09-17T19:13:59.013Z,56.30
2022-09-17T19:16:27.865Z,56.51
2022-09-17T19:18:55.355Z,56.78
2022-09-17T19:21:22.815Z,56.82
2022-09-17T19:23:51.393Z,57.20
2022-09-17T19:26:19.854Z,57.16
2022-09-17T19:28:47.541Z,57.21
2022-09-17T19:31:16.047Z,57.35
2022-09-17T19:33:46.626Z,57.91
2022-09-17T19:36:15.192Z,57.86
2022-09-17T19:38:42.763Z,58.00
2022-09-17T19:41:12.014Z,57.95
2022-09-17T19:43:39.670Z,58.11
2022-09-17T19:46:08.254Z,58.08
2022-09-17T19:48:36.459Z,57.89
2022-09-17T19:51:06.330Z,58.02
2022-09-17T19:53:34.044Z,58.01
2022-09-17T19:56:01.575Z,58.12
2022-09-17T19:58:29.082Z,58.09
2022-09-17T20:00:59.150Z,58.33
2022-09-17T20:03:26.942Z,58.16
2022-09-17T20:05:59.766Z,58.21
2022-09-17T20:08:28.737Z,58.31
2022-09-17T20:10:56.189Z,58.48
2022-09-17T20:13:25.323Z,58.47
2022-09-17T20:15:52.862Z,58.41
2022-09-17T20:18:23.479Z,58.65
2022-09-17T20:20:51.318Z,58.93
2022-09-17T20:23:18.857Z,58.87
2022-09-17T20:25:53.248Z,58.99
2022-09-17T20:28:20.691Z,58.98
2022-09-17T20:30:48.170Z,59.05
2022-09-17T20:33:15.749Z,59.23
2022-09-17T20:35:43.209Z,59.04
2022-09-17T20:41:03.039Z,59.14
2022-09-17T20:43:33.489Z,59.19
2022-09-17T20:46:01.985Z,59.35
2022-09-17T20:48:30.392Z,59.39
2022-09-17T20:50:58.848Z,59.91
2022-09-17T20:53:26.317Z,59.56
2022-09-17T20:55:57.706Z,59.71
2022-09-17T20:58:27.521Z,59.84
2022-09-17T21:00:55.105Z,60.09
2022-09-17T21:03:23.109Z,60.01
2022-09-17T21:05:50.579Z,59.96
2022-09-17T21:08:18.100Z,59.98
2022-09-17T21:10:45.565Z,60.12
2022-09-17T21:13:13.038Z,60.06
2022-09-17T21:15:41.957Z,60.13
2022-09-17T21:18:09.723Z,60.10
2022-09-17T21:20:37.514Z,60.10
2022-09-17T21:23:05.215Z,60.46
2022-09-17T21:25:32.776Z,60.28
2022-09-17T21:28:00.555Z,60.32
2022-09-17T21:30:28.028Z,60.03
2022-09-17T21:32:56.849Z,60.39
2022-09-17T21:35:29.850Z,60.34
2022-09-17T21:37:57.300Z,60.47
2022-09-17T21:40:24.789Z,60.38
2022-09-17T21:42:52.266Z,60.45
2022-09-17T21:45:19.709Z,60.66
2022-09-17T21:47:47.391Z,60.34
2022-09-17T21:50:16.392Z,60.59
2022-09-17T21:52:43.850Z,61.03
2022-09-17T21:55:12.590Z,60.97
2022-09-17T21:57:40.052Z,61.19
2022-09-17T22:00:09.109Z,61.33
2022-09-17T22:02:36.704Z,61.04
2022-09-17T22:05:04.303Z,61.06
2022-09-17T22:07:33.201Z,61.22
2022-09-17T22:10:00.655Z,61.26
2022-09-17T22:12:28.096Z,61.25
2022-09-17T22:14:55.595Z,61.73
2022-09-17T22:17:23.042Z,61.03
2022-09-17T22:19:50.477Z,61.35
2022-09-17T22:22:17.936Z,61.40
2022-09-17T22:24:46.738Z,61.20
2022-09-17T22:27:14.206Z,61.22
2022-09-17T22:29:41.662Z,61.21
2022-09-17T22:32:09.101Z,61.46
2022-09-17T22:34:36.910Z,61.48
2022-09-17T22:37:06.079Z,61.53
2022-09-17T22:39:33.547Z,61.45
2022-09-17T22:42:02.523Z,61.55
2022-09-17T22:44:29.973Z,61.35
2022-09-17T22:46:57.529Z,61.69
2022-09-17T22:49:25.057Z,61.60
2022-09-17T22:51:52.525Z,61.68
2022-09-17T22:54:20.315Z,61.77
2022-09-17T22:56:48.525Z,61.77
2022-09-17T22:59:18.154Z,61.69
2022-09-17T23:01:45.869Z,61.86
2022-09-17T23:04:13.374Z,61.81
2022-09-17T23:06:41.935Z,62.24
2022-09-17T23:09:09.512Z,62.13
2022-09-17T23:11:38.186Z,61.91
2022-09-17T23:14:06.778Z,62.23
2022-09-17T23:16:36.554Z,62.11
2022-09-17T23:19:04.770Z,62.17
2022-09-17T23:21:32.559Z,62.08
2022-09-17T23:24:00.165Z,62.27
2022-09-17T23:26:28.213Z,62.25
2022-09-17T23:28:57.401Z,62.48
2022-09-17T23:31:27.486Z,62.20
2022-09-17T23:33:57.486Z,62.32
2022-09-17T23:36:26.287Z,62.20
2022-09-17T23:38:54.722Z,62.47
2022-09-17T23:41:22.974Z,62.28
2022-09-17T23:43:51.701Z,62.35
2022-09-17T23:46:19.436Z,62.17
2022-09-17T23:48:47.198Z,62.21
2022-09-17T23:51:16.637Z,62.35
2022-09-17T23:53:44.519Z,62.58
2022-09-17T23:56:12.887Z,62.44
2022-09-17T23:58:40.781Z,62.25
